sensor_id;sensor_type;location;lat;lon;timestamp;temperature;humidity
11005;DHT22;5555;59.622;16.556;2023-02-01T00:01:37;-2.20;99.90
11005;DHT22;5555;59.622;16.556;2023-02-01T00:04:03;-2.20;99.90
11005;DHT22;5555;59.622;16.556;2023-02-01T00:06:29;-2.20;99.90
11005;DHT22;5555;59.622;16.556;2023-02-01T00:08:55;-2.20;99.90
11005;DHT22;5555;59.622;16.556;2023-02-01T00:11:22;-2.20;99.90
11005;DHT22;5555;59.622;16.556;2023-02-01T00:13:48;-2.10;99.90
11005;DHT22;5555;59.622;16.556;2023-02-01T00:16:17;-2.10;99.90
11005;DHT22;5555;59.622;16.556;2023-02-01T00:18:44;-2.10;99.90
11005;DHT22;5555;59.622;16.556;2023-02-01T00:21:10;-2.10;99.90
11005;DHT22;5555;59.622;16.556;2023-02-01T00:23:37;-2.10;99.90
11005;DHT22;5555;59.622;16.556;2023-02-01T00:26:05;-2.00;99.90
11005;DHT22;5555;59.622;16.556;2023-02-01T00:28:31;-2.00;99.90
11005;DHT22;5555;59.622;16.556;2023-02-01T00:31:01;-2.00;99.90
11005;DHT22;5555;59.622;16.556;2023-02-01T00:33:28;-1.90;99.90
11005;DHT22;5555;59.622;16.556;2023-02-01T00:36:05;-1.90;99.90
11005;DHT22;5555;59.622;16.556;2023-02-01T00:38:32;-1.80;99.90
11005;DHT22;5555;59.622;16.556;2023-02-01T00:41:06;-1.80;99.90
11005;DHT22;5555;59.622;16.556;2023-02-01T00:43:33;-1.70;99.90
11005;DHT22;5555;59.622;16.556;2023-02-01T00:45:58;-1.70;99.90
11005;DHT22;5555;59.622;16.556;2023-02-01T00:48:25;-1.70;99.90
11005;DHT22;5555;59.622;16.556;2023-02-01T00:50:51;-1.70;99.90
11005;DHT22;5555;59.622;16.556;2023-02-01T00:53:16;-1.70;99.90
11005;DHT22;5555;59.622;16.556;2023-02-01T00:55:45;-1.70;99.90
11005;DHT22;5555;59.622;16.556;2023-02-01T00:58:11;-1.70;99.90
11005;DHT22;5555;59.622;16.556;2023-02-01T01:00:37;-1.80;99.90
11005;DHT22;5555;59.622;16.556;2023-02-01T01:03:02;-1.80;99.90
11005;DHT22;5555;59.622;16.556;2023-02-01T01:05:49;-1.80;99.90
11005;DHT22;5555;59.622;16.556;2023-02-01T01:08:15;-1.80;99.90
11005;DHT22;5555;59.622;16.556;2023-02-01T01:10:41;-1.80;99.90
11005;DHT22;5555;59.622;16.556;2023-02-01T01:13:08;-1.90;99.90
11005;DHT22;5555;59.622;16.556;2023-02-01T01:15:38;-1.80;99.90
11005;DHT22;5555;59.622;16.556;2023-02-01T01:18:05;-1.80;99.90
11005;DHT22;5555;59.622;16.556;2023-02-01T01:20:31;-1.80;99.90
11005;DHT22;5555;59.622;16.556;2023-02-01T01:22:58;-1.80;99.90
11005;DHT22;5555;59.622;16.556;2023-02-01T01:25:24;-1.80;99.90
11005;DHT22;5555;59.622;16.556;2023-02-01T01:27:49;-1.80;99.90
11005;DHT22;5555;59.622;16.556;2023-02-01T01:30:16;-1.80;99.90
11005;DHT22;5555;59.622;16.556;2023-02-01T01:32:41;-1.80;99.90
11005;DHT22;5555;59.622;16.556;2023-02-01T01:35:07;-1.80;99.90
11005;DHT22;5555;59.622;16.556;2023-02-01T01:37:33;-1.80;99.90
11005;DHT22;5555;59.622;16.556;2023-02-01T01:39:58;-1.80;99.90
11005;DHT22;5555;59.622;16.556;2023-02-01T01:42:24;-1.80;99.90
11005;DHT22;5555;59.622;16.556;2023-02-01T01:45:06;-1.90;99.90
11005;DHT22;5555;59.622;16.556;2023-02-01T01:47:44;-1.90;99.90
11005;DHT22;5555;59.622;16.556;2023-02-01T01:50:16;-2.00;99.90
11005;DHT22;5555;59.622;16.556;2023-02-01T01:52:46;-2.00;99.90
11005;DHT22;5555;59.622;16.556;2023-02-01T01:55:15;-2.20;99.90
11005;DHT22;5555;59.622;16.556;2023-02-01T01:57:45;-2.30;99.90
11005;DHT22;5555;59.622;16.556;2023-02-01T02:00:16;-2.40;99.90
11005;DHT22;5555;59.622;16.556;2023-02-01T02:02:44;-2.50;99.90
11005;DHT22;5555;59.622;16.556;2023-02-01T02:05:12;-2.50;99.90
11005;DHT22;5555;59.622;16.556;2023-02-01T02:07:45;-2.50;99.90
11005;DHT22;5555;59.622;16.556;2023-02-01T02:10:12;-2.40;99.90
11005;DHT22;5555;59.622;16.556;2023-02-01T02:12:40;-2.40;99.90
11005;DHT22;5555;59.622;16.556;2023-02-01T02:15:08;-2.30;99.90
11005;DHT22;5555;59.622;16.556;2023-02-01T02:23:10;-2.10;99.90
11005;DHT22;5555;59.622;16.556;2023-02-01T02:48:47;-1.80;99.90
11005;DHT22;5555;59.622;16.556;2023-02-01T02:51:25;-1.80;99.90
11005;DHT22;5555;59.622;16.556;2023-02-01T02:54:21;-1.80;99.90
11005;DHT22;5555;59.622;16.556;2023-02-01T02:57:09;-1.80;99.90
11005;DHT22;5555;59.622;16.556;2023-02-01T02:59:55;-1.80;99.90
11005;DHT22;5555;59.622;16.556;2023-02-01T03:02:41;-1.80;99.90
11005;DHT22;5555;59.622;16.556;2023-02-01T03:05:35;-1.70;99.90
11005;DHT22;5555;59.622;16.556;2023-02-01T03:08:28;-1.70;99.90
11005;DHT22;5555;59.622;16.556;2023-02-01T03:13:28;-1.70;99.90
11005;DHT22;5555;59.622;16.556;2023-02-01T03:21:48;-1.50;99.90
11005;DHT22;5555;59.622;16.556;2023-02-01T03:24:23;-1.50;99.90
11005;DHT22;5555;59.622;16.556;2023-02-01T03:27:02;-1.50;99.90
11005;DHT22;5555;59.622;16.556;2023-02-01T03:29:35;-1.50;99.90
11005;DHT22;5555;59.622;16.556;2023-02-01T03:32:02;-1.50;99.90
11005;DHT22;5555;59.622;16.556;2023-02-01T03:34:28;-1.50;99.90
11005;DHT22;5555;59.622;16.556;2023-02-01T03:37:16;-1.40;99.90
11005;DHT22;5555;59.622;16.556;2023-02-01T03:42:43;-1.30;99.90
11005;DHT22;5555;59.622;16.556;2023-02-01T03:45:34;-1.30;99.90
11005;DHT22;5555;59.622;16.556;2023-02-01T03:48:03;-1.30;99.90
11005;DHT22;5555;59.622;16.556;2023-02-01T03:50:30;-1.20;99.90
11005;DHT22;5555;59.622;16.556;2023-02-01T03:53:01;-1.20;99.90
11005;DHT22;5555;59.622;16.556;2023-02-01T03:55:28;-1.10;99.90
11005;DHT22;5555;59.622;16.556;2023-02-01T04:00:35;-1.10;99.90
11005;DHT22;5555;59.622;16.556;2023-02-01T04:03:04;-1.10;99.90
11005;DHT22;5555;59.622;16.556;2023-02-01T04:05:30;-1.00;99.90
11005;DHT22;5555;59.622;16.556;2023-02-01T04:07:56;-1.00;99.90
11005;DHT22;5555;59.622;16.556;2023-02-01T04:10:22;-1.00;99.90
11005;DHT22;5555;59.622;16.556;2023-02-01T04:12:47;-0.90;99.90
11005;DHT22;5555;59.622;16.556;2023-02-01T04:15:13;-0.90;99.90
11005;DHT22;5555;59.622;16.556;2023-02-01T04:17:39;-0.90;99.90
11005;DHT22;5555;59.622;16.556;2023-02-01T04:20:05;-0.90;99.90
11005;DHT22;5555;59.622;16.556;2023-02-01T04:22:30;-1.00;99.90
11005;DHT22;5555;59.622;16.556;2023-02-01T04:24:56;-1.00;99.90
11005;DHT22;5555;59.622;16.556;2023-02-01T04:27:22;-1.00;99.90
11005;DHT22;5555;59.622;16.556;2023-02-01T04:29:47;-1.00;99.90
11005;DHT22;5555;59.622;16.556;2023-02-01T04:32:15;-1.00;99.90
11005;DHT22;5555;59.622;16.556;2023-02-01T04:34:41;-1.00;99.90
11005;DHT22;5555;59.622;16.556;2023-02-01T04:37:07;-1.00;99.90
11005;DHT22;5555;59.622;16.556;2023-02-01T04:39:33;-0.90;99.90
11005;DHT22;5555;59.622;16.556;2023-02-01T04:41:58;-0.90;99.90
11005;DHT22;5555;59.622;16.556;2023-02-01T04:44:24;-0.90;99.90
11005;DHT22;5555;59.622;16.556;2023-02-01T04:46:50;-0.90;99.90
11005;DHT22;5555;59.622;16.556;2023-02-01T04:49:16;-0.90;99.90
11005;DHT22;5555;59.622;16.556;2023-02-01T04:51:42;-0.90;99.90
11005;DHT22;5555;59.622;16.556;2023-02-01T04:54:08;-0.80;99.90
11005;DHT22;5555;59.622;16.556;2023-02-01T04:56:37;-0.80;99.90
11005;DHT22;5555;59.622;16.556;2023-02-01T04:59:02;-0.90;99.90
11005;DHT22;5555;59.622;16.556;2023-02-01T05:01:29;-0.90;99.90
11005;DHT22;5555;59.622;16.556;2023-02-01T05:03:55;-0.90;99.90
11005;DHT22;5555;59.622;16.556;2023-02-01T05:06:21;-0.90;99.90
11005;DHT22;5555;59.622;16.556;2023-02-01T05:08:47;-0.90;99.90
11005;DHT22;5555;59.622;16.556;2023-02-01T05:11:12;-1.00;99.90
11005;DHT22;5555;59.622;16.556;2023-02-01T05:13:57;-1.00;99.90
11005;DHT22;5555;59.622;16.556;2023-02-01T05:16:23;-1.10;99.90
11005;DHT22;5555;59.622;16.556;2023-02-01T05:18:48;-1.00;99.90
11005;DHT22;5555;59.622;16.556;2023-02-01T05:21:14;-1.10;99.90
11005;DHT22;5555;59.622;16.556;2023-02-01T05:23:39;-1.10;99.90
11005;DHT22;5555;59.622;16.556;2023-02-01T05:26:24;-1.10;99.90
11005;DHT22;5555;59.622;16.556;2023-02-01T05:28:50;-1.10;99.90
11005;DHT22;5555;59.622;16.556;2023-02-01T05:31:16;-1.00;99.90
11005;DHT22;5555;59.622;16.556;2023-02-01T05:33:41;-1.00;99.90
11005;DHT22;5555;59.622;16.556;2023-02-01T05:36:07;-1.00;99.90
11005;DHT22;5555;59.622;16.556;2023-02-01T05:38:33;-1.00;99.90
11005;DHT22;5555;59.622;16.556;2023-02-01T05:40:58;-1.00;99.90
11005;DHT22;5555;59.622;16.556;2023-02-01T05:43:24;-1.00;99.90
11005;DHT22;5555;59.622;16.556;2023-02-01T05:45:51;-1.00;99.90
11005;DHT22;5555;59.622;16.556;2023-02-01T05:48:17;-1.00;99.90
11005;DHT22;5555;59.622;16.556;2023-02-01T05:50:43;-1.00;99.90
11005;DHT22;5555;59.622;16.556;2023-02-01T05:53:09;-1.00;99.90
11005;DHT22;5555;59.622;16.556;2023-02-01T05:55:34;-1.00;99.90
11005;DHT22;5555;59.622;16.556;2023-02-01T05:58:01;-1.00;99.90
11005;DHT22;5555;59.622;16.556;2023-02-01T06:00:26;-0.90;99.90
11005;DHT22;5555;59.622;16.556;2023-02-01T06:02:52;-1.00;99.90
11005;DHT22;5555;59.622;16.556;2023-02-01T06:05:18;-1.00;99.90
11005;DHT22;5555;59.622;16.556;2023-02-01T06:07:43;-1.00;99.90
11005;DHT22;5555;59.622;16.556;2023-02-01T06:10:09;-1.00;99.90
11005;DHT22;5555;59.622;16.556;2023-02-01T06:12:35;-0.90;99.90
11005;DHT22;5555;59.622;16.556;2023-02-01T06:15:01;-0.90;99.90
11005;DHT22;5555;59.622;16.556;2023-02-01T06:17:26;-1.00;99.90
11005;DHT22;5555;59.622;16.556;2023-02-01T06:19:52;-1.00;99.90
11005;DHT22;5555;59.622;16.556;2023-02-01T06:22:17;-1.00;99.90
11005;DHT22;5555;59.622;16.556;2023-02-01T06:24:43;-1.00;99.90
11005;DHT22;5555;59.622;16.556;2023-02-01T06:27:09;-1.00;99.90
11005;DHT22;5555;59.622;16.556;2023-02-01T06:29:35;-1.00;99.90
11005;DHT22;5555;59.622;16.556;2023-02-01T06:32:01;-1.00;99.90
11005;DHT22;5555;59.622;16.556;2023-02-01T06:34:26;-1.00;99.90
11005;DHT22;5555;59.622;16.556;2023-02-01T06:36:52;-0.90;99.90
11005;DHT22;5555;59.622;16.556;2023-02-01T06:39:18;-1.00;99.90
11005;DHT22;5555;59.622;16.556;2023-02-01T06:41:48;-1.00;99.90
11005;DHT22;5555;59.622;16.556;2023-02-01T06:44:14;-0.90;99.90
11005;DHT22;5555;59.622;16.556;2023-02-01T06:46:40;-0.90;99.90
11005;DHT22;5555;59.622;16.556;2023-02-01T06:49:06;-1.00;99.90
11005;DHT22;5555;59.622;16.556;2023-02-01T06:51:31;-0.90;99.90
11005;DHT22;5555;59.622;16.556;2023-02-01T06:53:57;-1.00;99.90
11005;DHT22;5555;59.622;16.556;2023-02-01T06:56:24;-1.00;99.90
11005;DHT22;5555;59.622;16.556;2023-02-01T06:58:49;-1.00;99.90
11005;DHT22;5555;59.622;16.556;2023-02-01T07:01:15;-1.10;99.90
11005;DHT22;5555;59.622;16.556;2023-02-01T07:03:42;-1.10;99.90
11005;DHT22;5555;59.622;16.556;2023-02-01T07:06:08;-1.10;99.90
11005;DHT22;5555;59.622;16.556;2023-02-01T07:08:36;-1.10;99.90
11005;DHT22;5555;59.622;16.556;2023-02-01T07:11:06;-1.10;99.90
11005;DHT22;5555;59.622;16.556;2023-02-01T07:13:32;-1.10;99.90
11005;DHT22;5555;59.622;16.556;2023-02-01T07:16:02;-1.10;99.90
11005;DHT22;5555;59.622;16.556;2023-02-01T07:18:29;-1.20;99.90
11005;DHT22;5555;59.622;16.556;2023-02-01T07:20:55;-1.20;99.90
11005;DHT22;5555;59.622;16.556;2023-02-01T07:23:21;-1.20;99.90
11005;DHT22;5555;59.622;16.556;2023-02-01T07:25:47;-1.20;99.90
11005;DHT22;5555;59.622;16.556;2023-02-01T07:28:13;-1.20;99.90
11005;DHT22;5555;59.622;16.556;2023-02-01T07:30:39;-1.20;99.90
11005;DHT22;5555;59.622;16.556;2023-02-01T07:33:04;-1.20;99.90
11005;DHT22;5555;59.622;16.556;2023-02-01T07:35:31;-1.10;99.90
11005;DHT22;5555;59.622;16.556;2023-02-01T07:37:57;-1.20;99.90
11005;DHT22;5555;59.622;16.556;2023-02-01T07:40:24;-1.20;99.90
11005;DHT22;5555;59.622;16.556;2023-02-01T07:42:59;-1.20;99.90
11005;DHT22;5555;59.622;16.556;2023-02-01T07:45:25;-1.20;99.90
11005;DHT22;5555;59.622;16.556;2023-02-01T07:47:52;-1.20;99.90
11005;DHT22;5555;59.622;16.556;2023-02-01T07:50:18;-1.20;99.90
11005;DHT22;5555;59.622;16.556;2023-02-01T07:52:44;-1.20;99.90
11005;DHT22;5555;59.622;16.556;2023-02-01T07:55:10;-1.20;99.90
11005;DHT22;5555;59.622;16.556;2023-02-01T07:57:35;-1.20;99.90
11005;DHT22;5555;59.622;16.556;2023-02-01T08:00:01;-1.30;99.90
11005;DHT22;5555;59.622;16.556;2023-02-01T08:02:47;-1.20;99.90
11005;DHT22;5555;59.622;16.556;2023-02-01T08:05:13;-1.20;99.90
11005;DHT22;5555;59.622;16.556;2023-02-01T08:07:38;-1.20;99.90
11005;DHT22;5555;59.622;16.556;2023-02-01T08:10:04;-1.20;99.90
11005;DHT22;5555;59.622;16.556;2023-02-01T08:12:36;-1.20;99.90
11005;DHT22;5555;59.622;16.556;2023-02-01T08:15:02;-1.20;99.90
11005;DHT22;5555;59.622;16.556;2023-02-01T08:17:28;-1.20;99.90
11005;DHT22;5555;59.622;16.556;2023-02-01T08:19:54;-1.30;99.90
11005;DHT22;5555;59.622;16.556;2023-02-01T08:22:20;-1.30;99.90
11005;DHT22;5555;59.622;16.556;2023-02-01T08:24:48;-1.30;99.90
11005;DHT22;5555;59.622;16.556;2023-02-01T08:27:14;-1.20;99.90
11005;DHT22;5555;59.622;16.556;2023-02-01T08:29:39;-1.10;99.90
11005;DHT22;5555;59.622;16.556;2023-02-01T08:32:05;-1.10;99.90
11005;DHT22;5555;59.622;16.556;2023-02-01T08:34:31;-1.10;99.90
11005;DHT22;5555;59.622;16.556;2023-02-01T08:36:56;-1.10;99.90
11005;DHT22;5555;59.622;16.556;2023-02-01T08:39:26;-1.10;99.90
11005;DHT22;5555;59.622;16.556;2023-02-01T08:41:51;-1.10;99.90
11005;DHT22;5555;59.622;16.556;2023-02-01T08:44:36;-1.20;99.90
11005;DHT22;5555;59.622;16.556;2023-02-01T08:47:03;-1.20;99.90
11005;DHT22;5555;59.622;16.556;2023-02-01T08:49:29;-1.20;99.90
11005;DHT22;5555;59.622;16.556;2023-02-01T08:51:54;-1.20;99.90
11005;DHT22;5555;59.622;16.556;2023-02-01T08:54:20;-1.20;99.90
11005;DHT22;5555;59.622;16.556;2023-02-01T08:56:46;-1.10;99.90
11005;DHT22;5555;59.622;16.556;2023-02-01T08:59:12;-1.00;99.90
11005;DHT22;5555;59.622;16.556;2023-02-01T09:01:37;-0.90;99.90
11005;DHT22;5555;59.622;16.556;2023-02-01T09:04:03;-0.80;99.90
11005;DHT22;5555;59.622;16.556;2023-02-01T09:06:29;-0.70;99.90
11005;DHT22;5555;59.622;16.556;2023-02-01T09:08:54;-0.60;99.90
11005;DHT22;5555;59.622;16.556;2023-02-01T09:11:21;-0.70;99.90
11005;DHT22;5555;59.622;16.556;2023-02-01T09:13:47;-0.70;99.90
11005;DHT22;5555;59.622;16.556;2023-02-01T09:16:13;-0.70;99.90
11005;DHT22;5555;59.622;16.556;2023-02-01T09:18:38;-0.70;99.90
11005;DHT22;5555;59.622;16.556;2023-02-01T09:21:06;-0.60;99.90
11005;DHT22;5555;59.622;16.556;2023-02-01T09:23:32;-0.50;99.90
11005;DHT22;5555;59.622;16.556;2023-02-01T09:26:01;-0.50;99.90
11005;DHT22;5555;59.622;16.556;2023-02-01T09:28:27;-0.50;99.90
11005;DHT22;5555;59.622;16.556;2023-02-01T09:30:57;-0.50;99.90
11005;DHT22;5555;59.622;16.556;2023-02-01T09:33:23;-0.50;99.90
11005;DHT22;5555;59.622;16.556;2023-02-01T09:35:59;-0.50;99.90
11005;DHT22;5555;59.622;16.556;2023-02-01T09:38:25;-0.40;99.90
11005;DHT22;5555;59.622;16.556;2023-02-01T09:40:53;-0.40;99.90
11005;DHT22;5555;59.622;16.556;2023-02-01T09:43:48;-0.50;99.90
11005;DHT22;5555;59.622;16.556;2023-02-01T09:46:27;-0.50;99.90
11005;DHT22;5555;59.622;16.556;2023-02-01T09:48:56;-0.60;99.90
11005;DHT22;5555;59.622;16.556;2023-02-01T09:51:44;-0.60;99.90
11005;DHT22;5555;59.622;16.556;2023-02-01T09:54:19;-0.70;99.90
11005;DHT22;5555;59.622;16.556;2023-02-01T09:56:49;-0.60;99.90
11005;DHT22;5555;59.622;16.556;2023-02-01T09:59:28;-0.60;99.90
11005;DHT22;5555;59.622;16.556;2023-02-01T10:01:56;-0.60;99.90
11005;DHT22;5555;59.622;16.556;2023-02-01T10:04:22;-0.60;99.90
11005;DHT22;5555;59.622;16.556;2023-02-01T10:09:50;-0.50;99.90
11005;DHT22;5555;59.622;16.556;2023-02-01T10:12:31;-0.50;99.90
11005;DHT22;5555;59.622;16.556;2023-02-01T10:25:58;0.30;99.90
11005;DHT22;5555;59.622;16.556;2023-02-01T10:28:25;0.40;99.90
11005;DHT22;5555;59.622;16.556;2023-02-01T10:30:54;0.40;99.90
11005;DHT22;5555;59.622;16.556;2023-02-01T10:33:39;0.20;99.90
11005;DHT22;5555;59.622;16.556;2023-02-01T10:36:21;0.20;99.90
11005;DHT22;5555;59.622;16.556;2023-02-01T10:38:48;0.10;99.90
11005;DHT22;5555;59.622;16.556;2023-02-01T10:41:15;0.20;99.90
11005;DHT22;5555;59.622;16.556;2023-02-01T10:43:43;0.30;99.90
11005;DHT22;5555;59.622;16.556;2023-02-01T10:46:10;0.40;99.90
11005;DHT22;5555;59.622;16.556;2023-02-01T10:48:36;0.50;99.90
11005;DHT22;5555;59.622;16.556;2023-02-01T10:51:10;0.40;99.90
11005;DHT22;5555;59.622;16.556;2023-02-01T10:53:56;0.40;99.90
11005;DHT22;5555;59.622;16.556;2023-02-01T10:56:27;0.50;99.90
11005;DHT22;5555;59.622;16.556;2023-02-01T10:59:01;0.50;99.90
11005;DHT22;5555;59.622;16.556;2023-02-01T11:01:35;0.60;99.90
11005;DHT22;5555;59.622;16.556;2023-02-01T11:04:04;0.30;99.90
11005;DHT22;5555;59.622;16.556;2023-02-01T11:06:36;0.40;99.90
11005;DHT22;5555;59.622;16.556;2023-02-01T11:11:53;0.50;99.90
11005;DHT22;5555;59.622;16.556;2023-02-01T11:14:30;0.40;99.90
11005;DHT22;5555;59.622;16.556;2023-02-01T11:16:59;0.30;99.90
11005;DHT22;5555;59.622;16.556;2023-02-01T11:19:26;0.50;99.90
11005;DHT22;5555;59.622;16.556;2023-02-01T11:21:58;0.60;99.90
11005;DHT22;5555;59.622;16.556;2023-02-01T11:26:56;0.90;99.90
11005;DHT22;5555;59.622;16.556;2023-02-01T11:29:22;0.50;99.90
11005;DHT22;5555;59.622;16.556;2023-02-01T11:31:56;0.40;99.90
11005;DHT22;5555;59.622;16.556;2023-02-01T11:34:25;0.30;99.90
11005;DHT22;5555;59.622;16.556;2023-02-01T11:36:54;0.20;99.90
11005;DHT22;5555;59.622;16.556;2023-02-01T11:39:34;0.30;99.90
11005;DHT22;5555;59.622;16.556;2023-02-01T11:42:03;0.40;99.90
11005;DHT22;5555;59.622;16.556;2023-02-01T11:44:34;0.50;99.90
11005;DHT22;5555;59.622;16.556;2023-02-01T11:49:45;0.60;99.90
11005;DHT22;5555;59.622;16.556;2023-02-01T11:55:37;0.50;99.90
11005;DHT22;5555;59.622;16.556;2023-02-01T11:58:31;0.40;99.90
11005;DHT22;5555;59.622;16.556;2023-02-01T12:07:10;0.40;99.90
11005;DHT22;5555;59.622;16.556;2023-02-01T12:12:19;0.50;99.90
11005;DHT22;5555;59.622;16.556;2023-02-01T12:20:51;0.20;99.90
11005;DHT22;5555;59.622;16.556;2023-02-01T12:42:21;0.40;99.90
11005;DHT22;5555;59.622;16.556;2023-02-01T12:50:18;0.30;99.90
11005;DHT22;5555;59.622;16.556;2023-02-01T12:52:49;0.30;99.90
11005;DHT22;5555;59.622;16.556;2023-02-01T13:00:40;0.30;99.90
11005;DHT22;5555;59.622;16.556;2023-02-01T13:03:29;0.40;99.90
11005;DHT22;5555;59.622;16.556;2023-02-01T13:06:04;0.40;99.90
11005;DHT22;5555;59.622;16.556;2023-02-01T13:11:14;0.50;99.90
11005;DHT22;5555;59.622;16.556;2023-02-01T13:16:46;0.40;99.90
11005;DHT22;5555;59.622;16.556;2023-02-01T13:19:26;0.40;99.90
11005;DHT22;5555;59.622;16.556;2023-02-01T13:22:00;0.30;99.90
11005;DHT22;5555;59.622;16.556;2023-02-01T13:24:40;0.30;99.90
11005;DHT22;5555;59.622;16.556;2023-02-01T13:27:14;0.30;99.90
11005;DHT22;5555;59.622;16.556;2023-02-01T13:30:00;0.30;99.90
11005;DHT22;5555;59.622;16.556;2023-02-01T13:32:44;0.20;99.90
11005;DHT22;5555;59.622;16.556;2023-02-01T13:35:25;0.30;99.90
11005;DHT22;5555;59.622;16.556;2023-02-01T13:40:45;0.30;99.90
11005;DHT22;5555;59.622;16.556;2023-02-01T13:43:22;0.30;99.90
11005;DHT22;5555;59.622;16.556;2023-02-01T13:45:52;0.30;99.90
11005;DHT22;5555;59.622;16.556;2023-02-01T13:48:30;0.30;99.90
11005;DHT22;5555;59.622;16.556;2023-02-01T13:50:59;0.40;99.90
11005;DHT22;5555;59.622;16.556;2023-02-01T13:53:31;0.40;99.90
11005;DHT22;5555;59.622;16.556;2023-02-01T13:56:03;0.40;99.90
11005;DHT22;5555;59.622;16.556;2023-02-01T13:58:39;0.40;99.90
11005;DHT22;5555;59.622;16.556;2023-02-01T14:03:58;0.30;99.90
11005;DHT22;5555;59.622;16.556;2023-02-01T14:09:18;0.30;99.90
11005;DHT22;5555;59.622;16.556;2023-02-01T14:11:49;0.30;99.90
11005;DHT22;5555;59.622;16.556;2023-02-01T14:16:41;0.20;99.90
11005;DHT22;5555;59.622;16.556;2023-02-01T14:19:28;0.20;99.90
11005;DHT22;5555;59.622;16.556;2023-02-01T14:21:55;0.20;99.90
11005;DHT22;5555;59.622;16.556;2023-02-01T14:24:29;0.20;99.90
11005;DHT22;5555;59.622;16.556;2023-02-01T14:27:01;0.10;99.90
11005;DHT22;5555;59.622;16.556;2023-02-01T14:29:36;0.10;99.90
11005;DHT22;5555;59.622;16.556;2023-02-01T14:40:02;0.10;99.90
11005;DHT22;5555;59.622;16.556;2023-02-01T14:42:45;0.10;99.90
11005;DHT22;5555;59.622;16.556;2023-02-01T14:55:49;0.00;99.90
11005;DHT22;5555;59.622;16.556;2023-02-01T15:06:21;-0.10;99.90
11005;DHT22;5555;59.622;16.556;2023-02-01T15:08:48;-0.10;99.90
11005;DHT22;5555;59.622;16.556;2023-02-01T15:11:15;-0.20;99.90
11005;DHT22;5555;59.622;16.556;2023-02-01T15:13:48;-0.10;99.90
11005;DHT22;5555;59.622;16.556;2023-02-01T15:16:16;-0.20;99.90
11005;DHT22;5555;59.622;16.556;2023-02-01T15:18:42;-0.20;99.90
11005;DHT22;5555;59.622;16.556;2023-02-01T15:21:41;-0.20;99.90
11005;DHT22;5555;59.622;16.556;2023-02-01T15:24:13;-0.20;99.90
11005;DHT22;5555;59.622;16.556;2023-02-01T15:26:39;-0.30;99.90
11005;DHT22;5555;59.622;16.556;2023-02-01T15:29:04;-0.20;99.90
11005;DHT22;5555;59.622;16.556;2023-02-01T15:31:35;-0.20;99.90
11005;DHT22;5555;59.622;16.556;2023-02-01T15:34:02;-0.20;99.90
11005;DHT22;5555;59.622;16.556;2023-02-01T15:36:28;-0.20;99.90
11005;DHT22;5555;59.622;16.556;2023-02-01T15:39:16;-0.30;99.90
11005;DHT22;5555;59.622;16.556;2023-02-01T15:41:48;-0.20;99.90
11005;DHT22;5555;59.622;16.556;2023-02-01T15:44:34;-0.30;99.90
11005;DHT22;5555;59.622;16.556;2023-02-01T15:47:13;-0.30;99.90
11005;DHT22;5555;59.622;16.556;2023-02-01T15:49:41;-0.30;99.90
11005;DHT22;5555;59.622;16.556;2023-02-01T15:52:24;-0.30;99.90
11005;DHT22;5555;59.622;16.556;2023-02-01T15:54:56;-0.30;99.90
11005;DHT22;5555;59.622;16.556;2023-02-01T15:57:28;-0.30;99.90
11005;DHT22;5555;59.622;16.556;2023-02-01T16:00:00;-0.30;99.90
11005;DHT22;5555;59.622;16.556;2023-02-01T16:05:01;-0.30;99.90
11005;DHT22;5555;59.622;16.556;2023-02-01T16:07:30;-0.30;99.90
11005;DHT22;5555;59.622;16.556;2023-02-01T16:09:58;-0.30;99.90
11005;DHT22;5555;59.622;16.556;2023-02-01T16:12:30;-0.40;99.90
11005;DHT22;5555;59.622;16.556;2023-02-01T16:14:57;-0.40;99.90
11005;DHT22;5555;59.622;16.556;2023-02-01T16:17:22;-0.40;99.90
11005;DHT22;5555;59.622;16.556;2023-02-01T16:19:48;-0.40;99.90
11005;DHT22;5555;59.622;16.556;2023-02-01T16:22:13;-0.40;99.90
11005;DHT22;5555;59.622;16.556;2023-02-01T16:24:39;-0.40;99.90
11005;DHT22;5555;59.622;16.556;2023-02-01T16:27:05;-0.40;99.90
11005;DHT22;5555;59.622;16.556;2023-02-01T16:29:32;-0.40;99.90
11005;DHT22;5555;59.622;16.556;2023-02-01T16:31:58;-0.40;99.90
11005;DHT22;5555;59.622;16.556;2023-02-01T16:34:24;-0.40;99.90
11005;DHT22;5555;59.622;16.556;2023-02-01T16:36:50;-0.40;99.90
11005;DHT22;5555;59.622;16.556;2023-02-01T16:39:18;-0.40;99.90
11005;DHT22;5555;59.622;16.556;2023-02-01T16:41:44;-0.40;99.90
11005;DHT22;5555;59.622;16.556;2023-02-01T16:44:11;-0.50;99.90
11005;DHT22;5555;59.622;16.556;2023-02-01T16:46:40;-0.50;99.90
11005;DHT22;5555;59.622;16.556;2023-02-01T16:49:08;-0.50;99.90
11005;DHT22;5555;59.622;16.556;2023-02-01T16:51:41;-0.50;99.90
11005;DHT22;5555;59.622;16.556;2023-02-01T16:54:08;-0.50;99.90
11005;DHT22;5555;59.622;16.556;2023-02-01T16:56:34;-0.50;99.90
11005;DHT22;5555;59.622;16.556;2023-02-01T16:59:01;-0.50;99.90
11005;DHT22;5555;59.622;16.556;2023-02-01T17:01:26;-0.50;99.90
11005;DHT22;5555;59.622;16.556;2023-02-01T17:03:52;-0.60;99.90
11005;DHT22;5555;59.622;16.556;2023-02-01T17:06:20;-0.50;99.90
11005;DHT22;5555;59.622;16.556;2023-02-01T17:08:55;-0.50;99.90
11005;DHT22;5555;59.622;16.556;2023-02-01T17:11:21;-0.60;99.90
11005;DHT22;5555;59.622;16.556;2023-02-01T17:13:47;-0.60;99.90
11005;DHT22;5555;59.622;16.556;2023-02-01T17:18:48;-0.70;99.90
11005;DHT22;5555;59.622;16.556;2023-02-01T17:21:14;-0.70;99.90
11005;DHT22;5555;59.622;16.556;2023-02-01T17:23:40;-0.70;99.90
11005;DHT22;5555;59.622;16.556;2023-02-01T17:26:09;-0.70;99.90
11005;DHT22;5555;59.622;16.556;2023-02-01T17:28:35;-0.80;99.90
11005;DHT22;5555;59.622;16.556;2023-02-01T17:31:01;-0.90;99.90
11005;DHT22;5555;59.622;16.556;2023-02-01T17:33:45;-0.90;99.90
11005;DHT22;5555;59.622;16.556;2023-02-01T17:36:15;-1.00;99.90
11005;DHT22;5555;59.622;16.556;2023-02-01T17:38:42;-1.10;99.90
11005;DHT22;5555;59.622;16.556;2023-02-01T17:41:11;-1.10;99.90
11005;DHT22;5555;59.622;16.556;2023-02-01T17:43:37;-1.10;99.90
11005;DHT22;5555;59.622;16.556;2023-02-01T17:46:11;-1.10;99.90
11005;DHT22;5555;59.622;16.556;2023-02-01T17:48:38;-1.10;99.90
11005;DHT22;5555;59.622;16.556;2023-02-01T17:51:04;-1.10;99.90
11005;DHT22;5555;59.622;16.556;2023-02-01T17:53:30;-1.00;99.90
11005;DHT22;5555;59.622;16.556;2023-02-01T17:55:56;-1.00;99.90
11005;DHT22;5555;59.622;16.556;2023-02-01T17:58:26;-0.90;99.90
11005;DHT22;5555;59.622;16.556;2023-02-01T18:00:54;-0.90;99.90
11005;DHT22;5555;59.622;16.556;2023-02-01T18:03:28;-0.90;99.90
11005;DHT22;5555;59.622;16.556;2023-02-01T18:05:56;-0.90;99.90
11005;DHT22;5555;59.622;16.556;2023-02-01T18:08:27;-0.80;99.90
11005;DHT22;5555;59.622;16.556;2023-02-01T18:11:00;-0.90;99.90
11005;DHT22;5555;59.622;16.556;2023-02-01T18:13:27;-0.90;99.90
11005;DHT22;5555;59.622;16.556;2023-02-01T18:15:53;-0.80;99.90
11005;DHT22;5555;59.622;16.556;2023-02-01T18:18:18;-0.80;99.90
11005;DHT22;5555;59.622;16.556;2023-02-01T18:20:45;-0.80;99.90
11005;DHT22;5555;59.622;16.556;2023-02-01T18:23:17;-0.80;99.90
11005;DHT22;5555;59.622;16.556;2023-02-01T18:25:43;-0.80;99.90
11005;DHT22;5555;59.622;16.556;2023-02-01T18:28:12;-0.70;99.90